sensor_id;sensor_type;location;lat;lon;timestamp;temperature;humidity
76120;DHT22;64852;48.092;-1.640;2024-03-02T00:00:50;6.10;99.90
76120;DHT22;64852;48.092;-1.640;2024-03-02T00:03:16;6.10;99.90
76120;DHT22;64852;48.092;-1.640;2024-03-02T00:05:42;7.60;99.90
76120;DHT22;64852;48.092;-1.640;2024-03-02T00:08:07;6.40;99.90
76120;DHT22;64852;48.092;-1.640;2024-03-02T00:10:40;7.00;99.90
76120;DHT22;64852;48.092;-1.640;2024-03-02T00:13:08;6.30;99.90
76120;DHT22;64852;48.092;-1.640;2024-03-02T00:15:47;6.40;99.90
76120;DHT22;64852;48.092;-1.640;2024-03-02T00:18:20;6.30;99.90
76120;DHT22;64852;48.092;-1.640;2024-03-02T00:20:45;6.20;99.90
76120;DHT22;64852;48.092;-1.640;2024-03-02T00:23:16;7.50;99.90
76120;DHT22;64852;48.092;-1.640;2024-03-02T00:25:49;7.50;99.90
76120;DHT22;64852;48.092;-1.640;2024-03-02T00:30:45;6.60;99.90
76120;DHT22;64852;48.092;-1.640;2024-03-02T00:33:15;7.20;99.90
76120;DHT22;64852;48.092;-1.640;2024-03-02T00:35:40;7.10;99.90
76120;DHT22;64852;48.092;-1.640;2024-03-02T00:38:09;6.30;99.90
76120;DHT22;64852;48.092;-1.640;2024-03-02T00:40:34;7.70;99.90
76120;DHT22;64852;48.092;-1.640;2024-03-02T00:43:00;7.70;99.90
76120;DHT22;64852;48.092;-1.640;2024-03-02T00:45:26;7.20;99.90
76120;DHT22;64852;48.092;-1.640;2024-03-02T00:47:52;7.50;99.90
76120;DHT22;64852;48.092;-1.640;2024-03-02T00:50:18;6.50;99.90
76120;DHT22;64852;48.092;-1.640;2024-03-02T00:52:44;6.50;99.90
76120;DHT22;64852;48.092;-1.640;2024-03-02T00:55:09;7.30;99.90
76120;DHT22;64852;48.092;-1.640;2024-03-02T00:57:35;7.60;99.90
76120;DHT22;64852;48.092;-1.640;2024-03-02T01:00:01;7.40;99.90
76120;DHT22;64852;48.092;-1.640;2024-03-02T01:02:27;7.20;99.90
76120;DHT22;64852;48.092;-1.640;2024-03-02T01:04:53;7.90;99.90
76120;DHT22;64852;48.092;-1.640;2024-03-02T01:07:18;7.40;99.90
76120;DHT22;64852;48.092;-1.640;2024-03-02T01:09:44;7.70;99.90
76120;DHT22;64852;48.092;-1.640;2024-03-02T01:12:10;7.60;99.90
76120;DHT22;64852;48.092;-1.640;2024-03-02T01:14:35;6.60;99.90
76120;DHT22;64852;48.092;-1.640;2024-03-02T01:17:01;7.00;99.90
76120;DHT22;64852;48.092;-1.640;2024-03-02T01:19:29;6.70;99.90
76120;DHT22;64852;48.092;-1.640;2024-03-02T01:21:55;6.70;99.90
76120;DHT22;64852;48.092;-1.640;2024-03-02T01:24:20;6.70;99.90
76120;DHT22;64852;48.092;-1.640;2024-03-02T01:26:46;6.60;99.90
76120;DHT22;64852;48.092;-1.640;2024-03-02T01:29:11;6.60;99.90
76120;DHT22;64852;48.092;-1.640;2024-03-02T01:31:37;7.10;99.90
76120;DHT22;64852;48.092;-1.640;2024-03-02T01:34:02;7.20;99.90
76120;DHT22;64852;48.092;-1.640;2024-03-02T01:36:28;6.50;99.90
76120;DHT22;64852;48.092;-1.640;2024-03-02T01:38:53;7.20;99.90
76120;DHT22;64852;48.092;-1.640;2024-03-02T01:41:19;7.70;99.90
76120;DHT22;64852;48.092;-1.640;2024-03-02T01:43:44;7.40;99.90
76120;DHT22;64852;48.092;-1.640;2024-03-02T01:46:10;6.30;99.90
76120;DHT22;64852;48.092;-1.640;2024-03-02T01:48:35;6.50;99.90
76120;DHT22;64852;48.092;-1.640;2024-03-02T01:51:01;6.30;99.90
76120;DHT22;64852;48.092;-1.640;2024-03-02T01:53:26;6.40;99.90
76120;DHT22;64852;48.092;-1.640;2024-03-02T01:55:53;7.40;99.90
76120;DHT22;64852;48.092;-1.640;2024-03-02T01:58:18;6.40;99.90
76120;DHT22;64852;48.092;-1.640;2024-03-02T02:00:44;6.70;99.90
76120;DHT22;64852;48.092;-1.640;2024-03-02T02:03:10;6.80;99.90
76120;DHT22;64852;48.092;-1.640;2024-03-02T02:05:35;7.30;99.90
76120;DHT22;64852;48.092;-1.640;2024-03-02T02:08:01;6.40;99.90
76120;DHT22;64852;48.092;-1.640;2024-03-02T02:10:27;6.40;99.90
76120;DHT22;64852;48.092;-1.640;2024-03-02T02:12:52;6.40;99.90
76120;DHT22;64852;48.092;-1.640;2024-03-02T02:15:28;6.60;99.90
76120;DHT22;64852;48.092;-1.640;2024-03-02T02:17:54;6.50;99.90
76120;DHT22;64852;48.092;-1.640;2024-03-02T02:20:19;6.80;99.90
76120;DHT22;64852;48.092;-1.640;2024-03-02T02:25:19;6.60;99.90
76120;DHT22;64852;48.092;-1.640;2024-03-02T02:27:45;7.50;99.90
76120;DHT22;64852;48.092;-1.640;2024-03-02T02:30:10;6.60;99.90
76120;DHT22;64852;48.092;-1.640;2024-03-02T02:32:36;6.70;99.90
76120;DHT22;64852;48.092;-1.640;2024-03-02T02:35:01;8.00;99.90
76120;DHT22;64852;48.092;-1.640;2024-03-02T02:37:27;6.80;99.90
76120;DHT22;64852;48.092;-1.640;2024-03-02T02:39:52;7.60;99.90
76120;DHT22;64852;48.092;-1.640;2024-03-02T02:42:18;7.50;99.90
76120;DHT22;64852;48.092;-1.640;2024-03-02T02:44:43;7.90;99.90
76120;DHT22;64852;48.092;-1.640;2024-03-02T02:47:09;7.60;99.90
76120;DHT22;64852;48.092;-1.640;2024-03-02T02:49:35;7.60;99.90
76120;DHT22;64852;48.092;-1.640;2024-03-02T02:52:00;7.70;99.90
76120;DHT22;64852;48.092;-1.640;2024-03-02T02:54:25;7.60;99.90
76120;DHT22;64852;48.092;-1.640;2024-03-02T02:56:51;7.60;99.90
76120;DHT22;64852;48.092;-1.640;2024-03-02T02:59:16;7.20;99.90
76120;DHT22;64852;48.092;-1.640;2024-03-02T03:01:42;7.40;99.90
76120;DHT22;64852;48.092;-1.640;2024-03-02T03:04:07;6.50;99.90
76120;DHT22;64852;48.092;-1.640;2024-03-02T03:06:33;6.50;99.90
76120;DHT22;64852;48.092;-1.640;2024-03-02T03:08:58;7.30;99.90
76120;DHT22;64852;48.092;-1.640;2024-03-02T03:11:24;7.40;99.90
76120;DHT22;64852;48.092;-1.640;2024-03-02T03:13:52;6.30;99.90
76120;DHT22;64852;48.092;-1.640;2024-03-02T03:16:18;6.40;99.90
76120;DHT22;64852;48.092;-1.640;2024-03-02T03:18:43;6.30;99.90
76120;DHT22;64852;48.092;-1.640;2024-03-02T03:21:09;7.50;99.90
76120;DHT22;64852;48.092;-1.640;2024-03-02T03:23:35;6.40;99.90
76120;DHT22;64852;48.092;-1.640;2024-03-02T03:26:00;7.10;99.90
76120;DHT22;64852;48.092;-1.640;2024-03-02T03:28:26;6.90;99.90
76120;DHT22;64852;48.092;-1.640;2024-03-02T03:30:51;7.20;99.90
76120;DHT22;64852;48.092;-1.640;2024-03-02T03:33:17;7.10;99.90
76120;DHT22;64852;48.092;-1.640;2024-03-02T03:35:42;7.40;99.90
76120;DHT22;64852;48.092;-1.640;2024-03-02T03:38:08;7.60;99.90
76120;DHT22;64852;48.092;-1.640;2024-03-02T03:40:33;6.30;99.90
76120;DHT22;64852;48.092;-1.640;2024-03-02T03:42:59;6.30;99.90
76120;DHT22;64852;48.092;-1.640;2024-03-02T03:45:25;6.90;99.90
76120;DHT22;64852;48.092;-1.640;2024-03-02T03:47:52;7.30;99.90
76120;DHT22;64852;48.092;-1.640;2024-03-02T03:50:18;7.60;99.90
76120;DHT22;64852;48.092;-1.640;2024-03-02T03:52:43;6.50;99.90
76120;DHT22;64852;48.092;-1.640;2024-03-02T03:55:09;7.30;99.90
76120;DHT22;64852;48.092;-1.640;2024-03-02T03:57:35;7.20;99.90
76120;DHT22;64852;48.092;-1.640;2024-03-02T04:00:01;7.20;99.90
76120;DHT22;64852;48.092;-1.640;2024-03-02T04:02:26;6.50;99.90
76120;DHT22;64852;48.092;-1.640;2024-03-02T04:04:52;7.20;99.90
76120;DHT22;64852;48.092;-1.640;2024-03-02T04:07:17;6.60;99.90
76120;DHT22;64852;48.092;-1.640;2024-03-02T04:09:43;7.20;99.90
76120;DHT22;64852;48.092;-1.640;2024-03-02T04:12:08;7.50;99.90
76120;DHT22;64852;48.092;-1.640;2024-03-02T04:14:34;6.30;99.90
76120;DHT22;64852;48.092;-1.640;2024-03-02T04:16:59;7.60;99.90
76120;DHT22;64852;48.092;-1.640;2024-03-02T04:19:25;7.40;99.90
76120;DHT22;64852;48.092;-1.640;2024-03-02T04:21:50;6.00;99.90
76120;DHT22;64852;48.092;-1.640;2024-03-02T04:24:16;7.00;99.90
76120;DHT22;64852;48.092;-1.640;2024-03-02T04:26:41;6.60;99.90
76120;DHT22;64852;48.092;-1.640;2024-03-02T04:29:07;7.30;99.90
76120;DHT22;64852;48.092;-1.640;2024-03-02T04:31:33;6.60;99.90
76120;DHT22;64852;48.092;-1.640;2024-03-02T04:33:58;6.30;99.90
76120;DHT22;64852;48.092;-1.640;2024-03-02T04:36:24;7.60;99.90
76120;DHT22;64852;48.092;-1.640;2024-03-02T04:38:49;7.60;99.90
76120;DHT22;64852;48.092;-1.640;2024-03-02T04:41:15;7.80;99.90
76120;DHT22;64852;48.092;-1.640;2024-03-02T04:43:40;7.00;99.90
76120;DHT22;64852;48.092;-1.640;2024-03-02T04:46:06;7.00;99.90
76120;DHT22;64852;48.092;-1.640;2024-03-02T04:48:34;6.10;99.90
76120;DHT22;64852;48.092;-1.640;2024-03-02T04:50:59;6.60;99.90
76120;DHT22;64852;48.092;-1.640;2024-03-02T04:53:25;6.30;99.90
76120;DHT22;64852;48.092;-1.640;2024-03-02T04:55:50;6.80;99.90
76120;DHT22;64852;48.092;-1.640;2024-03-02T04:58:19;6.00;99.90
76120;DHT22;64852;48.092;-1.640;2024-03-02T05:00:44;7.00;99.90
76120;DHT22;64852;48.092;-1.640;2024-03-02T05:03:12;6.10;99.90
76120;DHT22;64852;48.092;-1.640;2024-03-02T05:05:37;6.30;99.90
76120;DHT22;64852;48.092;-1.640;2024-03-02T05:08:03;6.70;99.90
76120;DHT22;64852;48.092;-1.640;2024-03-02T05:10:29;6.10;99.90
76120;DHT22;64852;48.092;-1.640;2024-03-02T05:12:54;7.40;99.90
76120;DHT22;64852;48.092;-1.640;2024-03-02T05:15:24;6.20;99.90
76120;DHT22;64852;48.092;-1.640;2024-03-02T05:17:50;7.20;99.90
76120;DHT22;64852;48.092;-1.640;2024-03-02T05:20:15;7.30;99.90
76120;DHT22;64852;48.092;-1.640;2024-03-02T05:22:41;6.20;99.90
76120;DHT22;64852;48.092;-1.640;2024-03-02T05:25:06;7.50;99.90
76120;DHT22;64852;48.092;-1.640;2024-03-02T05:27:32;6.20;99.90
76120;DHT22;64852;48.092;-1.640;2024-03-02T05:30:00;7.40;99.90
76120;DHT22;64852;48.092;-1.640;2024-03-02T05:32:26;7.10;99.90
76120;DHT22;64852;48.092;-1.640;2024-03-02T05:34:51;7.70;99.90
76120;DHT22;64852;48.092;-1.640;2024-03-02T05:37:17;6.70;99.90
76120;DHT22;64852;48.092;-1.640;2024-03-02T05:39:42;6.40;99.90
76120;DHT22;64852;48.092;-1.640;2024-03-02T05:42:08;7.30;99.90
76120;DHT22;64852;48.092;-1.640;2024-03-02T05:44:34;7.10;99.90
76120;DHT22;64852;48.092;-1.640;2024-03-02T05:47:00;6.80;99.90
76120;DHT22;64852;48.092;-1.640;2024-03-02T05:49:25;7.50;99.90
76120;DHT22;64852;48.092;-1.640;2024-03-02T05:51:51;7.70;99.90
76120;DHT22;64852;48.092;-1.640;2024-03-02T05:54:16;7.00;99.90
76120;DHT22;64852;48.092;-1.640;2024-03-02T05:56:42;7.70;99.90
76120;DHT22;64852;48.092;-1.640;2024-03-02T05:59:07;6.50;99.90
76120;DHT22;64852;48.092;-1.640;2024-03-02T06:01:42;6.90;99.90
76120;DHT22;64852;48.092;-1.640;2024-03-02T06:04:08;6.30;99.90
76120;DHT22;64852;48.092;-1.640;2024-03-02T06:06:34;6.70;99.90
76120;DHT22;64852;48.092;-1.640;2024-03-02T06:09:02;6.40;99.90
76120;DHT22;64852;48.092;-1.640;2024-03-02T06:11:42;6.60;99.90
76120;DHT22;64852;48.092;-1.640;2024-03-02T06:14:08;6.40;99.90
76120;DHT22;64852;48.092;-1.640;2024-03-02T06:16:34;7.50;99.90
76120;DHT22;64852;48.092;-1.640;2024-03-02T06:19:00;8.00;99.90
76120;DHT22;64852;48.092;-1.640;2024-03-02T06:21:25;7.20;99.90
76120;DHT22;64852;48.092;-1.640;2024-03-02T06:23:51;7.30;99.90
76120;DHT22;64852;48.092;-1.640;2024-03-02T06:26:16;6.70;99.90
76120;DHT22;64852;48.092;-1.640;2024-03-02T06:28:42;6.80;99.90
76120;DHT22;64852;48.092;-1.640;2024-03-02T06:31:08;8.10;99.90
76120;DHT22;64852;48.092;-1.640;2024-03-02T06:33:33;7.40;99.90
76120;DHT22;64852;48.092;-1.640;2024-03-02T06:35:59;7.20;99.90
76120;DHT22;64852;48.092;-1.640;2024-03-02T06:38:24;6.70;99.90
76120;DHT22;64852;48.092;-1.640;2024-03-02T06:40:50;7.30;99.90
76120;DHT22;64852;48.092;-1.640;2024-03-02T06:43:15;6.50;99.90
76120;DHT22;64852;48.092;-1.640;2024-03-02T06:45:41;6.40;99.90
76120;DHT22;64852;48.092;-1.640;2024-03-02T06:48:06;7.60;99.90
76120;DHT22;64852;48.092;-1.640;2024-03-02T06:50:32;6.20;99.90
76120;DHT22;64852;48.092;-1.640;2024-03-02T06:52:58;7.60;99.90
76120;DHT22;64852;48.092;-1.640;2024-03-02T06:55:23;7.30;99.90
76120;DHT22;64852;48.092;-1.640;2024-03-02T06:57:51;6.80;99.90
76120;DHT22;64852;48.092;-1.640;2024-03-02T07:00:17;6.30;99.90
76120;DHT22;64852;48.092;-1.640;2024-03-02T07:02:43;6.20;99.90
76120;DHT22;64852;48.092;-1.640;2024-03-02T07:05:10;7.10;99.90
76120;DHT22;64852;48.092;-1.640;2024-03-02T07:07:35;6.70;99.90
76120;DHT22;64852;48.092;-1.640;2024-03-02T07:10:02;6.30;99.90
76120;DHT22;64852;48.092;-1.640;2024-03-02T07:12:28;6.20;99.90
76120;DHT22;64852;48.092;-1.640;2024-03-02T07:14:53;7.20;99.90
76120;DHT22;64852;48.092;-1.640;2024-03-02T07:17:30;7.10;99.90
76120;DHT22;64852;48.092;-1.640;2024-03-02T07:19:56;6.60;99.90
76120;DHT22;64852;48.092;-1.640;2024-03-02T07:22:21;6.80;99.90
76120;DHT22;64852;48.092;-1.640;2024-03-02T07:24:48;7.20;99.90
76120;DHT22;64852;48.092;-1.640;2024-03-02T07:27:14;7.20;99.90
76120;DHT22;64852;48.092;-1.640;2024-03-02T07:29:40;7.50;99.90
76120;DHT22;64852;48.092;-1.640;2024-03-02T07:32:06;7.20;99.90
76120;DHT22;64852;48.092;-1.640;2024-03-02T07:34:32;6.00;99.90
76120;DHT22;64852;48.092;-1.640;2024-03-02T07:36:57;7.00;99.90
76120;DHT22;64852;48.092;-1.640;2024-03-02T07:39:23;6.30;99.90
76120;DHT22;64852;48.092;-1.640;2024-03-02T07:41:49;7.10;99.90
76120;DHT22;64852;48.092;-1.640;2024-03-02T07:44:14;6.10;99.90
76120;DHT22;64852;48.092;-1.640;2024-03-02T07:46:43;7.00;99.90
76120;DHT22;64852;48.092;-1.640;2024-03-02T07:49:09;7.80;99.90
76120;DHT22;64852;48.092;-1.640;2024-03-02T07:51:34;7.60;99.90
76120;DHT22;64852;48.092;-1.640;2024-03-02T07:54:00;6.20;99.90
76120;DHT22;64852;48.092;-1.640;2024-03-02T07:56:26;6.80;99.90
76120;DHT22;64852;48.092;-1.640;2024-03-02T07:58:51;7.10;99.90
76120;DHT22;64852;48.092;-1.640;2024-03-02T08:01:17;7.50;99.90
76120;DHT22;64852;48.092;-1.640;2024-03-02T08:03:43;6.60;99.90
76120;DHT22;64852;48.092;-1.640;2024-03-02T08:06:19;7.10;99.90
76120;DHT22;64852;48.092;-1.640;2024-03-02T08:08:46;6.70;99.90
76120;DHT22;64852;48.092;-1.640;2024-03-02T08:11:12;7.90;99.90
76120;DHT22;64852;48.092;-1.640;2024-03-02T08:13:37;6.70;99.90
76120;DHT22;64852;48.092;-1.640;2024-03-02T08:16:03;7.90;99.90
76120;DHT22;64852;48.092;-1.640;2024-03-02T08:18:32;6.80;99.90
76120;DHT22;64852;48.092;-1.640;2024-03-02T08:20:57;7.80;99.90
76120;DHT22;64852;48.092;-1.640;2024-03-02T08:23:23;6.80;99.90
76120;DHT22;64852;48.092;-1.640;2024-03-02T08:25:48;6.90;99.90
76120;DHT22;64852;48.092;-1.640;2024-03-02T08:28:14;7.20;99.90
76120;DHT22;64852;48.092;-1.640;2024-03-02T08:30:39;6.90;99.90
76120;DHT22;64852;48.092;-1.640;2024-03-02T08:33:05;7.30;99.90
76120;DHT22;64852;48.092;-1.640;2024-03-02T08:35:31;7.50;99.90
76120;DHT22;64852;48.092;-1.640;2024-03-02T08:38:01;7.80;99.90
76120;DHT22;64852;48.092;-1.640;2024-03-02T08:40:26;8.00;99.90
76120;DHT22;64852;48.092;-1.640;2024-03-02T08:42:52;7.00;99.90
76120;DHT22;64852;48.092;-1.640;2024-03-02T08:45:18;7.20;99.90
76120;DHT22;64852;48.092;-1.640;2024-03-02T08:47:45;7.00;99.90
76120;DHT22;64852;48.092;-1.640;2024-03-02T08:50:11;7.10;99.90
76120;DHT22;64852;48.092;-1.640;2024-03-02T08:52:36;6.90;99.90
76120;DHT22;64852;48.092;-1.640;2024-03-02T08:55:02;6.80;99.90
76120;DHT22;64852;48.092;-1.640;2024-03-02T08:57:27;6.80;99.90
76120;DHT22;64852;48.092;-1.640;2024-03-02T08:59:53;7.90;99.90
76120;DHT22;64852;48.092;-1.640;2024-03-02T09:02:18;8.00;99.90
76120;DHT22;64852;48.092;-1.640;2024-03-02T09:04:44;7.30;99.90
76120;DHT22;64852;48.092;-1.640;2024-03-02T09:07:09;8.20;99.90
76120;DHT22;64852;48.092;-1.640;2024-03-02T09:09:35;7.10;99.90
76120;DHT22;64852;48.092;-1.640;2024-03-02T09:12:00;8.10;99.90
76120;DHT22;64852;48.092;-1.640;2024-03-02T09:14:26;7.20;99.90
76120;DHT22;64852;48.092;-1.640;2024-03-02T09:16:52;8.30;99.90
76120;DHT22;64852;48.092;-1.640;2024-03-02T09:19:17;7.10;99.90
76120;DHT22;64852;48.092;-1.640;2024-03-02T09:21:44;7.10;99.90
76120;DHT22;64852;48.092;-1.640;2024-03-02T09:24:09;7.40;99.90
76120;DHT22;64852;48.092;-1.640;2024-03-02T09:26:35;7.40;99.90
76120;DHT22;64852;48.092;-1.640;2024-03-02T09:29:03;7.10;99.90
76120;DHT22;64852;48.092;-1.640;2024-03-02T09:31:29;7.30;99.90
76120;DHT22;64852;48.092;-1.640;2024-03-02T09:33:55;7.30;99.90
76120;DHT22;64852;48.092;-1.640;2024-03-02T09:36:20;7.50;99.90
76120;DHT22;64852;48.092;-1.640;2024-03-02T09:38:46;7.50;99.90
76120;DHT22;64852;48.092;-1.640;2024-03-02T09:41:12;8.50;99.90
76120;DHT22;64852;48.092;-1.640;2024-03-02T09:43:38;8.00;99.90
76120;DHT22;64852;48.092;-1.640;2024-03-02T09:46:04;7.60;99.90
76120;DHT22;64852;48.092;-1.640;2024-03-02T09:48:30;7.80;99.90
76120;DHT22;64852;48.092;-1.640;2024-03-02T09:50:55;7.90;99.90
76120;DHT22;64852;48.092;-1.640;2024-03-02T09:53:21;7.90;99.90
76120;DHT22;64852;48.092;-1.640;2024-03-02T09:55:47;9.00;99.90
76120;DHT22;64852;48.092;-1.640;2024-03-02T09:58:13;8.40;99.90
76120;DHT22;64852;48.092;-1.640;2024-03-02T10:00:38;7.80;99.90
76120;DHT22;64852;48.092;-1.640;2024-03-02T10:03:04;8.40;99.90
76120;DHT22;64852;48.092;-1.640;2024-03-02T10:05:30;8.20;99.90
76120;DHT22;64852;48.092;-1.640;2024-03-02T10:08:02;8.40;99.90
76120;DHT22;64852;48.092;-1.640;2024-03-02T10:10:38;7.90;99.90
76120;DHT22;64852;48.092;-1.640;2024-03-02T10:13:07;8.10;99.90
76120;DHT22;64852;48.092;-1.640;2024-03-02T10:15:33;8.70;99.90
76120;DHT22;64852;48.092;-1.640;2024-03-02T10:17:59;8.30;99.90
76120;DHT22;64852;48.092;-1.640;2024-03-02T10:20:25;8.50;99.90
76120;DHT22;64852;48.092;-1.640;2024-03-02T10:22:50;8.50;99.90
76120;DHT22;64852;48.092;-1.640;2024-03-02T10:25:31;8.60;99.90
76120;DHT22;64852;48.092;-1.640;2024-03-02T10:28:00;8.60;99.90
76120;DHT22;64852;48.092;-1.640;2024-03-02T10:30:26;8.70;99.90
76120;DHT22;64852;48.092;-1.640;2024-03-02T10:32:55;8.80;99.90
76120;DHT22;64852;48.092;-1.640;2024-03-02T10:35:23;8.70;99.90
76120;DHT22;64852;48.092;-1.640;2024-03-02T10:37:49;9.40;99.90
76120;DHT22;64852;48.092;-1.640;2024-03-02T10:40:14;9.20;99.90
76120;DHT22;64852;48.092;-1.640;2024-03-02T10:42:41;8.70;99.90
76120;DHT22;64852;48.092;-1.640;2024-03-02T10:45:07;9.90;99.90
76120;DHT22;64852;48.092;-1.640;2024-03-02T10:47:33;9.00;99.90
76120;DHT22;64852;48.092;-1.640;2024-03-02T10:50:01;9.10;99.90
76120;DHT22;64852;48.092;-1.640;2024-03-02T10:52:29;9.00;99.90
76120;DHT22;64852;48.092;-1.640;2024-03-02T10:54:55;9.30;99.90
76120;DHT22;64852;48.092;-1.640;2024-03-02T10:57:21;9.30;99.90
76120;DHT22;64852;48.092;-1.640;2024-03-02T10:59:51;9.60;99.90
76120;DHT22;64852;48.092;-1.640;2024-03-02T11:02:17;9.70;99.90
76120;DHT22;64852;48.092;-1.640;2024-03-02T11:04:43;9.10;99.90
76120;DHT22;64852;48.092;-1.640;2024-03-02T11:07:10;9.00;99.90
76120;DHT22;64852;48.092;-1.640;2024-03-02T11:09:49;10.00;99.90
76120;DHT22;64852;48.092;-1.640;2024-03-02T11:12:19;9.10;99.90
76120;DHT22;64852;48.092;-1.640;2024-03-02T11:14:48;10.00;99.90
76120;DHT22;64852;48.092;-1.640;2024-03-02T11:17:17;10.00;99.90
76120;DHT22;64852;48.092;-1.640;2024-03-02T11:19:42;10.10;99.90
76120;DHT22;64852;48.092;-1.640;2024-03-02T11:22:08;10.30;99.90
76120;DHT22;64852;48.092;-1.640;2024-03-02T11:24:34;10.20;99.90
76120;DHT22;64852;48.092;-1.640;2024-03-02T11:27:00;9.90;99.90
76120;DHT22;64852;48.092;-1.640;2024-03-02T11:29:44;10.20;99.90
76120;DHT22;64852;48.092;-1.640;2024-03-02T11:34:40;10.20;99.90
76120;DHT22;64852;48.092;-1.640;2024-03-02T11:37:10;11.20;99.90
76120;DHT22;64852;48.092;-1.640;2024-03-02T11:39:36;10.50;99.90
76120;DHT22;64852;48.092;-1.640;2024-03-02T11:42:01;10.60;99.90
76120;DHT22;64852;48.092;-1.640;2024-03-02T11:44:28;10.60;99.90
76120;DHT22;64852;48.092;-1.640;2024-03-02T11:52:07;10.90;99.90
76120;DHT22;64852;48.092;-1.640;2024-03-02T11:54:33;10.90;99.90
76120;DHT22;64852;48.092;-1.640;2024-03-02T11:57:02;11.40;99.90
76120;DHT22;64852;48.092;-1.640;2024-03-02T11:59:28;10.80;99.90
76120;DHT22;64852;48.092;-1.640;2024-03-02T12:01:54;11.00;99.90
76120;DHT22;64852;48.092;-1.640;2024-03-02T12:04:19;10.40;99.90
76120;DHT22;64852;48.092;-1.640;2024-03-02T12:06:45;10.50;99.90
76120;DHT22;64852;48.092;-1.640;2024-03-02T12:09:11;10.30;99.90
76120;DHT22;64852;48.092;-1.640;2024-03-02T12:11:37;10.20;99.90
76120;DHT22;64852;48.092;-1.640;2024-03-02T12:14:03;10.20;99.90
76120;DHT22;64852;48.092;-1.640;2024-03-02T12:16:29;10.20;99.90
76120;DHT22;64852;48.092;-1.640;2024-03-02T12:18:55;10.20;99.90
76120;DHT22;64852;48.092;-1.640;2024-03-02T12:21:21;10.30;99.90
76120;DHT22;64852;48.092;-1.640;2024-03-02T12:23:46;10.20;99.90
76120;DHT22;64852;48.092;-1.640;2024-03-02T12:26:12;11.00;99.90
76120;DHT22;64852;48.092;-1.640;2024-03-02T12:28:37;11.20;99.90
76120;DHT22;64852;48.092;-1.640;2024-03-02T12:31:03;10.40;99.90
76120;DHT22;64852;48.092;-1.640;2024-03-02T12:33:28;10.30;99.90
76120;DHT22;64852;48.092;-1.640;2024-03-02T12:35:56;10.40;99.90
76120;DHT22;64852;48.092;-1.640;2024-03-02T12:38:22;10.70;99.90
76120;DHT22;64852;48.092;-1.640;2024-03-02T12:40:51;11.30;99.90
76120;DHT22;64852;48.092;-1.640;2024-03-02T12:43:16;10.80;99.90
76120;DHT22;64852;48.092;-1.640;2024-03-02T12:45:42;12.00;99.90
76120;DHT22;64852;48.092;-1.640;2024-03-02T12:48:07;11.30;99.90
76120;DHT22;64852;48.092;-1.640;2024-03-02T12:50:33;11.60;99.90
76120;DHT22;64852;48.092;-1.640;2024-03-02T12:52:59;12.10;99.90
76120;DHT22;64852;48.092;-1.640;2024-03-02T12:55:24;12.50;99.90
76120;DHT22;64852;48.092;-1.640;2024-03-02T12:57:51;13.10;99.90
76120;DHT22;64852;48.092;-1.640;2024-03-02T13:00:17;13.70;99.90
76120;DHT22;64852;48.092;-1.640;2024-03-02T13:02:45;14.10;99.90
76120;DHT22;64852;48.092;-1.640;2024-03-02T13:05:11;14.20;99.90
76120;DHT22;64852;48.092;-1.640;2024-03-02T13:07:37;14.10;99.90
76120;DHT22;64852;48.092;-1.640;2024-03-02T13:10:03;14.00;99.90
76120;DHT22;64852;48.092;-1.640;2024-03-02T13:12:29;13.80;99.90
76120;DHT22;64852;48.092;-1.640;2024-03-02T13:14:55;13.50;99.90
76120;DHT22;64852;48.092;-1.640;2024-03-02T13:17:23;13.20;99.90
76120;DHT22;64852;48.092;-1.640;2024-03-02T13:19:58;12.90;99.90
76120;DHT22;64852;48.092;-1.640;2024-03-02T13:22:24;12.80;99.90
76120;DHT22;64852;48.092;-1.640;2024-03-02T13:24:50;12.50;99.90
76120;DHT22;64852;48.092;-1.640;2024-03-02T13:27:16;12.30;99.90
76120;DHT22;64852;48.092;-1.640;2024-03-02T13:29:45;12.20;99.90
76120;DHT22;64852;48.092;-1.640;2024-03-02T13:32:11;12.20;99.90
76120;DHT22;64852;48.092;-1.640;2024-03-02T13:34:37;12.20;99.90
76120;DHT22;64852;48.092;-1.640;2024-03-02T13:37:02;12.50;99.90
76120;DHT22;64852;48.092;-1.640;2024-03-02T13:39:28;12.60;99.90
76120;DHT22;64852;48.092;-1.640;2024-03-02T13:41:56;12.80;99.90
76120;DHT22;64852;48.092;-1.640;2024-03-02T13:44:28;13.00;99.90
76120;DHT22;64852;48.092;-1.640;2024-03-02T13:46:54;13.00;99.90
76120;DHT22;64852;48.092;-1.640;2024-03-02T13:49:19;13.10;99.90
76120;DHT22;64852;48.092;-1.640;2024-03-02T13:51:45;12.90;99.90
76120;DHT22;64852;48.092;-1.640;2024-03-02T13:54:11;13.10;99.90
76120;DHT22;64852;48.092;-1.640;2024-03-02T13:56:36;12.70;99.90
76120;DHT22;64852;48.092;-1.640;2024-03-02T13:59:04;12.60;99.90
76120;DHT22;64852;48.092;-1.640;2024-03-02T14:01:31;12.50;99.90
76120;DHT22;64852;48.092;-1.640;2024-03-02T14:03:58;12.50;99.90
76120;DHT22;64852;48.092;-1.640;2024-03-02T14:06:23;12.50;99.90
76120;DHT22;64852;48.092;-1.640;2024-03-02T14:08:49;12.60;99.90
76120;DHT22;64852;48.092;-1.640;2024-03-02T14:11:14;12.80;99.90
76120;DHT22;64852;48.092;-1.640;2024-03-02T14:13:41;13.20;99.90
76120;DHT22;64852;48.092;-1.640;2024-03-02T14:16:07;13.30;99.90
76120;DHT22;64852;48.092;-1.640;2024-03-02T14:18:32;13.30;99.90
76120;DHT22;64852;48.092;-1.640;2024-03-02T14:20:58;13.40;99.90
76120;DHT22;64852;48.092;-1.640;2024-03-02T14:23:23;13.40;99.90
76120;DHT22;64852;48.092;-1.640;2024-03-02T14:25:49;13.60;99.90
76120;DHT22;64852;48.092;-1.640;2024-03-02T14:28:14;13.60;99.90
76120;DHT22;64852;48.092;-1.640;2024-03-02T14:30:41;13.70;99.90
76120;DHT22;64852;48.092;-1.640;2024-03-02T14:33:07;13.50;99.90
76120;DHT22;64852;48.092;-1.640;2024-03-02T14:35:32;13.50;99.90
76120;DHT22;64852;48.092;-1.640;2024-03-02T14:37:58;13.30;99.90
76120;DHT22;64852;48.092;-1.640;2024-03-02T14:40:23;13.60;99.90
76120;DHT22;64852;48.092;-1.640;2024-03-02T14:42:52;13.80;99.90
76120;DHT22;64852;48.092;-1.640;2024-03-02T14:45:17;14.10;99.90
76120;DHT22;64852;48.092;-1.640;2024-03-02T14:47:43;14.30;99.90
76120;DHT22;64852;48.092;-1.640;2024-03-02T14:50:08;14.30;99.90
76120;DHT22;64852;48.092;-1.640;2024-03-02T14:52:35;14.40;99.90
76120;DHT22;64852;48.092;-1.640;2024-03-02T14:55:01;14.40;99.90
76120;DHT22;64852;48.092;-1.640;2024-03-02T14:57:28;14.50;99.90
76120;DHT22;64852;48.092;-1.640;2024-03-02T14:59:53;14.40;99.90
76120;DHT22;64852;48.092;-1.640;2024-03-02T15:02:20;14.30;99.90
76120;DHT22;64852;48.092;-1.640;2024-03-02T15:04:45;14.20;99.90
76120;DHT22;64852;48.092;-1.640;2024-03-02T15:07:13;13.90;99.90
76120;DHT22;64852;48.092;-1.640;2024-03-02T15:09:38;13.70;99.90
76120;DHT22;64852;48.092;-1.640;2024-03-02T15:12:04;13.50;99.90
76120;DHT22;64852;48.092;-1.640;2024-03-02T15:14:30;13.60;99.90
76120;DHT22;64852;48.092;-1.640;2024-03-02T15:16:55;13.80;99.90
76120;DHT22;64852;48.092;-1.640;2024-03-02T15:19:21;13.90;99.90
76120;DHT22;64852;48.092;-1.640;2024-03-02T15:21:47;14.10;99.90
76120;DHT22;64852;48.092;-1.640;2024-03-02T15:24:12;14.00;99.90
76120;DHT22;64852;48.092;-1.640;2024-03-02T15:26:38;14.00;99.90
76120;DHT22;64852;48.092;-1.640;2024-03-02T15:29:03;13.80;99.90
76120;DHT22;64852;48.092;-1.640;2024-03-02T15:31:29;13.70;99.90
76120;DHT22;64852;48.092;-1.640;2024-03-02T15:33:54;13.50;99.90